This is the latest recevied weather packets stored in our database for station/object N4OOJ-13. If no packets are shown the sender has not sent any weather packets the latest 10 day(s).
| Time | Temp. | Humidity | Pressure | Rain* | Wind** | Luminosity | Snow |
|---|---|---|---|---|---|---|---|
| 1777383620 | 18.89° C | 77% | 1025.7 hPa | 0 mm | - | - | - |
| 1777383026 | 19.44° C | 76% | 1025.6 hPa | 0 mm | - | - | - |
| 1777382421 | 19.44° C | 75% | 1025.1 hPa | 0 mm | - | - | - |
| 1777381815 | 18.89° C | 77% | 1024.9 hPa | 0 mm | - | - | - |
| 1777381234 | 18.89° C | 77% | 1024.7 hPa | 0 mm | - | - | - |
| 1777380628 | 18.89° C | 77% | 1024.4 hPa | 0 mm | - | - | - |
| 1777380022 | 17.78° C | 83% | 1024.4 hPa | 0 mm | - | - | - |
| 1777379431 | 16.11° C | 91% | 1024.2 hPa | 0 mm | - | - | - |
| 1777378821 | 14.44° C | 96% | 1024.1 hPa | 0 mm | - | - | - |
| 1777378219 | 12.78° C | 99% | 1024.2 hPa | 0 mm | - | - | - |
| 1777377617 | 12.22° C | 99% | 1024.2 hPa | 0 mm | - | - | - |
| 1777377022 | 11.67° C | 99% | 1024 hPa | 0 mm | - | - | - |
| 1777376417 | 11.11° C | 99% | 1024.1 hPa | 0 mm | - | - | - |
| 1777375819 | 10.56° C | 99% | 1023.9 hPa | 0 mm | - | - | - |
| 1777375232 | 10° C | 99% | 1023.7 hPa | 0 mm | - | - | - |
| 1777374626 | 9.44° C | 99% | 1023.5 hPa | 0 mm | - | - | - |
| 1777374021 | 8.89° C | 99% | 1023.3 hPa | 0 mm | - | - | - |
| 1777373416 | 8.89° C | 99% | 1023 hPa | 0 mm | - | - | - |
| 1777372830 | 8.33° C | 99% | 1022.7 hPa | 0 mm | - | - | - |
| 1777372225 | 7.78° C | 99% | 1022.2 hPa | 0 mm | - | - | - |
| 1777371625 | 7.78° C | 99% | 1022.1 hPa | 0 mm | - | - | - |
| 1777371019 | 7.78° C | 99% | 1022.4 hPa | 0 mm | - | - | - |
| 1777370426 | 7.22° C | 99% | 1022.3 hPa | 0 mm | - | - | - |
| 1777369820 | 7.22° C | 99% | 1022.2 hPa | 0 mm | - | - | - |
| 1777369225 | 7.22° C | 99% | 1022 hPa | 0 mm | - | - | - |
* Rain latest hour (hover to see other rain measurements)
** Current wind speed in m/s (hover to see current wind gust speed)